sensor_id;sensor_type;location;lat;lon;timestamp;temperature;humidity
70726;DHT22;58304;53.104;6.022;2023-04-01T00:00:59;9.70;99.90
70726;DHT22;58304;53.104;6.022;2023-04-01T00:03:26;9.70;99.90
70726;DHT22;58304;53.104;6.022;2023-04-01T00:05:55;9.80;99.90
70726;DHT22;58304;53.104;6.022;2023-04-01T00:08:21;9.80;99.90
70726;DHT22;58304;53.104;6.022;2023-04-01T00:10:46;9.70;99.90
70726;DHT22;58304;53.104;6.022;2023-04-01T00:13:12;9.80;99.90
70726;DHT22;58304;53.104;6.022;2023-04-01T00:15:38;9.70;99.90
70726;DHT22;58304;53.104;6.022;2023-04-01T00:18:03;9.80;99.90
70726;DHT22;58304;53.104;6.022;2023-04-01T00:20:30;9.80;99.90
70726;DHT22;58304;53.104;6.022;2023-04-01T00:22:55;9.80;99.90
70726;DHT22;58304;53.104;6.022;2023-04-01T00:25:21;9.80;99.90
70726;DHT22;58304;53.104;6.022;2023-04-01T00:27:47;9.80;99.90
70726;DHT22;58304;53.104;6.022;2023-04-01T00:30:13;9.70;99.90
70726;DHT22;58304;53.104;6.022;2023-04-01T00:32:38;9.80;99.90
70726;DHT22;58304;53.104;6.022;2023-04-01T00:35:04;9.80;99.90
70726;DHT22;58304;53.104;6.022;2023-04-01T00:37:30;9.80;99.90
70726;DHT22;58304;53.104;6.022;2023-04-01T00:39:56;9.70;99.90
70726;DHT22;58304;53.104;6.022;2023-04-01T00:42:22;9.70;99.90
70726;DHT22;58304;53.104;6.022;2023-04-01T00:44:50;9.70;99.90
70726;DHT22;58304;53.104;6.022;2023-04-01T00:47:16;9.70;99.90
70726;DHT22;58304;53.104;6.022;2023-04-01T00:49:43;9.60;99.90
70726;DHT22;58304;53.104;6.022;2023-04-01T00:52:11;9.70;99.90
70726;DHT22;58304;53.104;6.022;2023-04-01T00:54:38;9.70;99.90
70726;DHT22;58304;53.104;6.022;2023-04-01T00:57:12;9.70;99.90
70726;DHT22;58304;53.104;6.022;2023-04-01T00:59:48;9.70;99.90
70726;DHT22;58304;53.104;6.022;2023-04-01T01:02:15;9.80;99.90
70726;DHT22;58304;53.104;6.022;2023-04-01T01:04:41;9.80;99.90
70726;DHT22;58304;53.104;6.022;2023-04-01T01:10:02;9.70;99.90
70726;DHT22;58304;53.104;6.022;2023-04-01T01:12:31;9.80;99.90
70726;DHT22;58304;53.104;6.022;2023-04-01T01:15:02;9.80;99.90
70726;DHT22;58304;53.104;6.022;2023-04-01T01:22:48;9.80;99.90
70726;DHT22;58304;53.104;6.022;2023-04-01T01:27:49;9.80;99.90
70726;DHT22;58304;53.104;6.022;2023-04-01T01:30:21;9.80;99.90
70726;DHT22;58304;53.104;6.022;2023-04-01T01:35:32;9.90;99.90
70726;DHT22;58304;53.104;6.022;2023-04-01T01:38:00;9.80;99.90
70726;DHT22;58304;53.104;6.022;2023-04-01T01:40:26;9.80;99.90
70726;DHT22;58304;53.104;6.022;2023-04-01T01:42:54;9.90;99.90
70726;DHT22;58304;53.104;6.022;2023-04-01T01:45:21;9.80;99.90
70726;DHT22;58304;53.104;6.022;2023-04-01T01:47:48;9.80;99.90
70726;DHT22;58304;53.104;6.022;2023-04-01T01:50:15;9.80;99.90
70726;DHT22;58304;53.104;6.022;2023-04-01T01:52:42;9.80;99.90
70726;DHT22;58304;53.104;6.022;2023-04-01T01:55:27;9.90;99.90
70726;DHT22;58304;53.104;6.022;2023-04-01T01:57:53;9.80;99.90
70726;DHT22;58304;53.104;6.022;2023-04-01T02:00:20;9.90;99.90
70726;DHT22;58304;53.104;6.022;2023-04-01T02:02:46;9.90;99.90
70726;DHT22;58304;53.104;6.022;2023-04-01T02:05:17;9.90;99.90
70726;DHT22;58304;53.104;6.022;2023-04-01T02:07:44;9.90;99.90
70726;DHT22;58304;53.104;6.022;2023-04-01T02:10:12;9.90;99.90
70726;DHT22;58304;53.104;6.022;2023-04-01T02:12:38;9.90;99.90
70726;DHT22;58304;53.104;6.022;2023-04-01T02:15:09;9.90;99.90
70726;DHT22;58304;53.104;6.022;2023-04-01T02:17:43;9.90;99.90
70726;DHT22;58304;53.104;6.022;2023-04-01T02:20:31;9.90;99.90
70726;DHT22;58304;53.104;6.022;2023-04-01T02:22:57;9.80;99.90
70726;DHT22;58304;53.104;6.022;2023-04-01T02:25:27;9.90;99.90
70726;DHT22;58304;53.104;6.022;2023-04-01T02:27:55;9.80;99.90
70726;DHT22;58304;53.104;6.022;2023-04-01T02:30:22;9.90;99.90
70726;DHT22;58304;53.104;6.022;2023-04-01T02:32:53;9.90;99.90
70726;DHT22;58304;53.104;6.022;2023-04-01T02:35:24;9.90;99.90
70726;DHT22;58304;53.104;6.022;2023-04-01T02:38:10;9.90;99.90
70726;DHT22;58304;53.104;6.022;2023-04-01T02:41:00;9.90;99.90
70726;DHT22;58304;53.104;6.022;2023-04-01T02:43:54;9.90;99.90
70726;DHT22;58304;53.104;6.022;2023-04-01T02:46:20;9.90;99.90
70726;DHT22;58304;53.104;6.022;2023-04-01T02:48:47;9.90;99.90
70726;DHT22;58304;53.104;6.022;2023-04-01T02:51:14;9.90;99.90
70726;DHT22;58304;53.104;6.022;2023-04-01T02:53:40;9.80;99.90
70726;DHT22;58304;53.104;6.022;2023-04-01T02:56:17;9.90;99.90
70726;DHT22;58304;53.104;6.022;2023-04-01T02:58:45;9.80;99.90
70726;DHT22;58304;53.104;6.022;2023-04-01T03:01:11;9.80;99.90
70726;DHT22;58304;53.104;6.022;2023-04-01T03:03:36;9.80;99.90
70726;DHT22;58304;53.104;6.022;2023-04-01T03:06:06;9.80;99.90
70726;DHT22;58304;53.104;6.022;2023-04-01T03:08:32;9.80;99.90
70726;DHT22;58304;53.104;6.022;2023-04-01T03:10:57;9.80;99.90
70726;DHT22;58304;53.104;6.022;2023-04-01T03:13:23;9.80;99.90
70726;DHT22;58304;53.104;6.022;2023-04-01T03:15:48;9.80;99.90
70726;DHT22;58304;53.104;6.022;2023-04-01T03:18:13;9.80;99.90
70726;DHT22;58304;53.104;6.022;2023-04-01T03:20:39;9.80;99.90
70726;DHT22;58304;53.104;6.022;2023-04-01T03:23:05;9.80;99.90
70726;DHT22;58304;53.104;6.022;2023-04-01T03:25:30;9.80;99.90
70726;DHT22;58304;53.104;6.022;2023-04-01T03:27:56;9.70;99.90
70726;DHT22;58304;53.104;6.022;2023-04-01T03:30:23;9.80;99.90
70726;DHT22;58304;53.104;6.022;2023-04-01T03:32:48;9.80;99.90
70726;DHT22;58304;53.104;6.022;2023-04-01T03:35:14;9.70;99.90
70726;DHT22;58304;53.104;6.022;2023-04-01T03:37:39;9.80;99.90
70726;DHT22;58304;53.104;6.022;2023-04-01T03:40:05;9.80;99.90
70726;DHT22;58304;53.104;6.022;2023-04-01T03:42:31;9.80;99.90
70726;DHT22;58304;53.104;6.022;2023-04-01T03:44:57;9.80;99.90
70726;DHT22;58304;53.104;6.022;2023-04-01T03:47:23;9.80;99.90
70726;DHT22;58304;53.104;6.022;2023-04-01T03:49:48;9.80;99.90
70726;DHT22;58304;53.104;6.022;2023-04-01T03:52:14;9.80;99.90
70726;DHT22;58304;53.104;6.022;2023-04-01T03:54:39;9.70;99.90
70726;DHT22;58304;53.104;6.022;2023-04-01T03:57:05;9.70;99.90
70726;DHT22;58304;53.104;6.022;2023-04-01T03:59:32;9.80;99.90
70726;DHT22;58304;53.104;6.022;2023-04-01T04:01:57;9.80;99.90
70726;DHT22;58304;53.104;6.022;2023-04-01T04:04:23;9.80;99.90
70726;DHT22;58304;53.104;6.022;2023-04-01T04:06:48;9.80;99.90
70726;DHT22;58304;53.104;6.022;2023-04-01T04:09:14;9.70;99.90
70726;DHT22;58304;53.104;6.022;2023-04-01T04:11:39;9.70;99.90
70726;DHT22;58304;53.104;6.022;2023-04-01T04:14:05;9.80;99.90
70726;DHT22;58304;53.104;6.022;2023-04-01T04:16:30;9.90;99.90
70726;DHT22;58304;53.104;6.022;2023-04-01T04:18:56;9.80;99.90
70726;DHT22;58304;53.104;6.022;2023-04-01T04:21:22;9.80;99.90
70726;DHT22;58304;53.104;6.022;2023-04-01T04:23:47;9.80;99.90
70726;DHT22;58304;53.104;6.022;2023-04-01T04:26:13;9.80;99.90
70726;DHT22;58304;53.104;6.022;2023-04-01T04:28:39;9.80;99.90
70726;DHT22;58304;53.104;6.022;2023-04-01T04:31:05;9.80;99.90
70726;DHT22;58304;53.104;6.022;2023-04-01T04:33:32;9.80;99.90
70726;DHT22;58304;53.104;6.022;2023-04-01T04:35:57;9.80;99.90
70726;DHT22;58304;53.104;6.022;2023-04-01T04:38:23;9.80;99.90
70726;DHT22;58304;53.104;6.022;2023-04-01T04:40:49;9.80;99.90
70726;DHT22;58304;53.104;6.022;2023-04-01T04:43:15;9.80;99.90
70726;DHT22;58304;53.104;6.022;2023-04-01T04:45:41;9.70;99.90
70726;DHT22;58304;53.104;6.022;2023-04-01T04:48:07;9.70;99.90
70726;DHT22;58304;53.104;6.022;2023-04-01T04:50:33;9.80;99.90
70726;DHT22;58304;53.104;6.022;2023-04-01T04:52:58;9.70;99.90
70726;DHT22;58304;53.104;6.022;2023-04-01T04:55:24;9.80;99.90
70726;DHT22;58304;53.104;6.022;2023-04-01T04:57:49;9.80;99.90
70726;DHT22;58304;53.104;6.022;2023-04-01T05:00:15;9.80;99.90
70726;DHT22;58304;53.104;6.022;2023-04-01T05:02:41;9.80;99.90
70726;DHT22;58304;53.104;6.022;2023-04-01T05:05:06;9.80;99.90
70726;DHT22;58304;53.104;6.022;2023-04-01T05:07:33;9.80;99.90
70726;DHT22;58304;53.104;6.022;2023-04-01T05:09:59;9.80;99.90
70726;DHT22;58304;53.104;6.022;2023-04-01T05:12:25;9.80;99.90
70726;DHT22;58304;53.104;6.022;2023-04-01T05:14:50;9.80;99.90
70726;DHT22;58304;53.104;6.022;2023-04-01T05:17:16;9.80;99.90
70726;DHT22;58304;53.104;6.022;2023-04-01T05:19:41;9.80;99.90
70726;DHT22;58304;53.104;6.022;2023-04-01T05:22:07;9.80;99.90
70726;DHT22;58304;53.104;6.022;2023-04-01T05:24:32;9.80;99.90
70726;DHT22;58304;53.104;6.022;2023-04-01T05:26:58;9.80;99.90
70726;DHT22;58304;53.104;6.022;2023-04-01T05:29:25;9.80;99.90
70726;DHT22;58304;53.104;6.022;2023-04-01T05:31:51;9.80;99.90
70726;DHT22;58304;53.104;6.022;2023-04-01T05:34:17;9.90;99.90
70726;DHT22;58304;53.104;6.022;2023-04-01T05:36:42;9.80;99.90
70726;DHT22;58304;53.104;6.022;2023-04-01T05:39:08;9.80;99.90
70726;DHT22;58304;53.104;6.022;2023-04-01T05:41:37;9.80;99.90
70726;DHT22;58304;53.104;6.022;2023-04-01T05:44:04;9.80;99.90
70726;DHT22;58304;53.104;6.022;2023-04-01T05:46:29;9.80;99.90
70726;DHT22;58304;53.104;6.022;2023-04-01T05:48:55;9.80;99.90
70726;DHT22;58304;53.104;6.022;2023-04-01T05:51:20;9.80;99.90
70726;DHT22;58304;53.104;6.022;2023-04-01T05:53:46;9.80;99.90
70726;DHT22;58304;53.104;6.022;2023-04-01T05:56:12;9.80;99.90
70726;DHT22;58304;53.104;6.022;2023-04-01T05:58:37;9.80;99.90
70726;DHT22;58304;53.104;6.022;2023-04-01T06:01:06;9.80;99.90
70726;DHT22;58304;53.104;6.022;2023-04-01T06:03:32;9.80;99.90
70726;DHT22;58304;53.104;6.022;2023-04-01T06:05:58;9.80;99.90
70726;DHT22;58304;53.104;6.022;2023-04-01T06:08:24;9.90;99.90
70726;DHT22;58304;53.104;6.022;2023-04-01T06:16:40;9.90;99.90
70726;DHT22;58304;53.104;6.022;2023-04-01T06:19:27;9.90;99.90
70726;DHT22;58304;53.104;6.022;2023-04-01T06:29:57;9.90;99.90
70726;DHT22;58304;53.104;6.022;2023-04-01T06:32:48;9.90;99.90
70726;DHT22;58304;53.104;6.022;2023-04-01T06:36:13;9.90;99.90
70726;DHT22;58304;53.104;6.022;2023-04-01T06:38:10;9.90;99.90
70726;DHT22;58304;53.104;6.022;2023-04-01T06:43:33;10.00;99.90
70726;DHT22;58304;53.104;6.022;2023-04-01T06:46:12;10.00;99.90
70726;DHT22;58304;53.104;6.022;2023-04-01T06:56:24;10.10;99.90
70726;DHT22;58304;53.104;6.022;2023-04-01T06:58:59;10.10;99.90
70726;DHT22;58304;53.104;6.022;2023-04-01T07:01:28;10.10;99.90
70726;DHT22;58304;53.104;6.022;2023-04-01T07:03:57;10.10;99.90
70726;DHT22;58304;53.104;6.022;2023-04-01T07:08:49;10.20;99.90
70726;DHT22;58304;53.104;6.022;2023-04-01T07:11:21;10.20;99.90
70726;DHT22;58304;53.104;6.022;2023-04-01T07:16:51;10.20;99.90
70726;DHT22;58304;53.104;6.022;2023-04-01T07:19:16;10.20;99.90
70726;DHT22;58304;53.104;6.022;2023-04-01T07:21:47;10.20;99.90
70726;DHT22;58304;53.104;6.022;2023-04-01T07:24:16;10.30;99.90
70726;DHT22;58304;53.104;6.022;2023-04-01T07:26:43;10.30;99.90
70726;DHT22;58304;53.104;6.022;2023-04-01T07:29:09;10.30;99.90
70726;DHT22;58304;53.104;6.022;2023-04-01T07:43:55;10.30;99.90
70726;DHT22;58304;53.104;6.022;2023-04-01T07:46:39;10.30;99.90
70726;DHT22;58304;53.104;6.022;2023-04-01T07:49:11;10.40;99.90
70726;DHT22;58304;53.104;6.022;2023-04-01T07:51:51;10.40;99.90
70726;DHT22;58304;53.104;6.022;2023-04-01T07:57:19;10.50;99.90
70726;DHT22;58304;53.104;6.022;2023-04-01T08:00:00;10.70;99.90
70726;DHT22;58304;53.104;6.022;2023-04-01T08:02:34;10.80;99.90
70726;DHT22;58304;53.104;6.022;2023-04-01T08:15:26;11.10;99.90
70726;DHT22;58304;53.104;6.022;2023-04-01T08:18:02;11.10;99.90
70726;DHT22;58304;53.104;6.022;2023-04-01T08:20:48;11.30;99.90
70726;DHT22;58304;53.104;6.022;2023-04-01T08:23:17;11.40;99.90
70726;DHT22;58304;53.104;6.022;2023-04-01T08:25:47;11.60;99.90
70726;DHT22;58304;53.104;6.022;2023-04-01T08:35:46;12.00;99.90
70726;DHT22;58304;53.104;6.022;2023-04-01T08:38:21;12.10;99.90
70726;DHT22;58304;53.104;6.022;2023-04-01T08:40:55;12.10;99.90
70726;DHT22;58304;53.104;6.022;2023-04-01T08:48:33;12.10;99.90
70726;DHT22;58304;53.104;6.022;2023-04-01T09:04:03;12.20;99.90
70726;DHT22;58304;53.104;6.022;2023-04-01T09:06:42;12.30;99.90
70726;DHT22;58304;53.104;6.022;2023-04-01T09:14:12;12.40;99.90
70726;DHT22;58304;53.104;6.022;2023-04-01T09:16:55;12.50;99.90
70726;DHT22;58304;53.104;6.022;2023-04-01T09:22:19;12.80;99.90
70726;DHT22;58304;53.104;6.022;2023-04-01T09:27:19;12.90;99.90
70726;DHT22;58304;53.104;6.022;2023-04-01T09:32:36;12.70;99.90
70726;DHT22;58304;53.104;6.022;2023-04-01T09:43:02;12.40;99.90
70726;DHT22;58304;53.104;6.022;2023-04-01T09:45:44;12.30;99.90
70726;DHT22;58304;53.104;6.022;2023-04-01T09:51:30;12.10;99.90
70726;DHT22;58304;53.104;6.022;2023-04-01T09:53:49;12.00;99.90
70726;DHT22;58304;53.104;6.022;2023-04-01T09:56:24;12.00;99.90
70726;DHT22;58304;53.104;6.022;2023-04-01T10:07:14;12.00;99.90
70726;DHT22;58304;53.104;6.022;2023-04-01T10:12:23;11.90;99.90
70726;DHT22;58304;53.104;6.022;2023-04-01T10:38:08;12.20;99.90
70726;DHT22;58304;53.104;6.022;2023-04-01T10:43:34;12.00;99.90
70726;DHT22;58304;53.104;6.022;2023-04-01T10:56:32;11.90;99.90
70726;DHT22;58304;53.104;6.022;2023-04-01T11:01:39;12.10;99.90
70726;DHT22;58304;53.104;6.022;2023-04-01T11:07:02;12.10;99.90
70726;DHT22;58304;53.104;6.022;2023-04-01T11:15:02;12.00;99.90
70726;DHT22;58304;53.104;6.022;2023-04-01T11:22:40;11.90;99.90
70726;DHT22;58304;53.104;6.022;2023-04-01T11:30:53;11.90;99.90
70726;DHT22;58304;53.104;6.022;2023-04-01T11:35:52;12.10;99.90
70726;DHT22;58304;53.104;6.022;2023-04-01T11:38:42;12.30;99.90
70726;DHT22;58304;53.104;6.022;2023-04-01T11:41:22;12.30;99.90
70726;DHT22;58304;53.104;6.022;2023-04-01T11:43:58;12.40;99.90
70726;DHT22;58304;53.104;6.022;2023-04-01T11:46:42;12.40;99.90
70726;DHT22;58304;53.104;6.022;2023-04-01T11:54:28;13.10;99.90
70726;DHT22;58304;53.104;6.022;2023-04-01T11:57:09;13.20;99.90
70726;DHT22;58304;53.104;6.022;2023-04-01T12:04:52;13.20;99.90
70726;DHT22;58304;53.104;6.022;2023-04-01T12:07:43;13.30;99.90
70726;DHT22;58304;53.104;6.022;2023-04-01T12:12:52;13.50;99.90
70726;DHT22;58304;53.104;6.022;2023-04-01T12:15:28;13.50;99.90
70726;DHT22;58304;53.104;6.022;2023-04-01T12:23:21;13.50;99.90
70726;DHT22;58304;53.104;6.022;2023-04-01T12:31:04;13.30;99.90
70726;DHT22;58304;53.104;6.022;2023-04-01T12:33:44;13.30;99.90
70726;DHT22;58304;53.104;6.022;2023-04-01T12:41:47;12.90;99.90
70726;DHT22;58304;53.104;6.022;2023-04-01T12:44:23;12.80;99.90
70726;DHT22;58304;53.104;6.022;2023-04-01T12:52:05;12.60;99.90
70726;DHT22;58304;53.104;6.022;2023-04-01T12:59:53;12.60;99.90
70726;DHT22;58304;53.104;6.022;2023-04-01T13:05:09;12.60;99.90
70726;DHT22;58304;53.104;6.022;2023-04-01T13:10:09;12.50;99.90
70726;DHT22;58304;53.104;6.022;2023-04-01T13:12:43;12.40;99.90
70726;DHT22;58304;53.104;6.022;2023-04-01T13:17:53;12.40;99.90
70726;DHT22;58304;53.104;6.022;2023-04-01T13:20:28;12.40;99.90
70726;DHT22;58304;53.104;6.022;2023-04-01T13:25:36;12.30;99.90
70726;DHT22;58304;53.104;6.022;2023-04-01T13:28:06;12.30;99.90
70726;DHT22;58304;53.104;6.022;2023-04-01T13:30:47;12.40;99.90
70726;DHT22;58304;53.104;6.022;2023-04-01T13:38:41;12.40;99.90
70726;DHT22;58304;53.104;6.022;2023-04-01T13:43:47;12.40;99.90
70726;DHT22;58304;53.104;6.022;2023-04-01T13:48:50;12.40;99.90
70726;DHT22;58304;53.104;6.022;2023-04-01T13:51:28;12.30;99.90
70726;DHT22;58304;53.104;6.022;2023-04-01T13:56:42;12.30;99.90
70726;DHT22;58304;53.104;6.022;2023-04-01T13:59:26;12.30;99.90
70726;DHT22;58304;53.104;6.022;2023-04-01T14:02:21;12.30;99.90
70726;DHT22;58304;53.104;6.022;2023-04-01T14:04:45;12.30;99.90
70726;DHT22;58304;53.104;6.022;2023-04-01T14:09:49;11.90;99.90
70726;DHT22;58304;53.104;6.022;2023-04-01T14:25:25;11.60;99.90
70726;DHT22;58304;53.104;6.022;2023-04-01T14:30:47;11.50;99.90
70726;DHT22;58304;53.104;6.022;2023-04-01T14:33:34;11.40;99.90
70726;DHT22;58304;53.104;6.022;2023-04-01T14:41:36;11.30;99.90
70726;DHT22;58304;53.104;6.022;2023-04-01T14:49:17;11.10;99.90
70726;DHT22;58304;53.104;6.022;2023-04-01T14:51:46;11.10;99.90
70726;DHT22;58304;53.104;6.022;2023-04-01T14:54:13;11.00;99.90
70726;DHT22;58304;53.104;6.022;2023-04-01T14:57:01;11.00;99.90
70726;DHT22;58304;53.104;6.022;2023-04-01T14:59:29;11.00;99.90
70726;DHT22;58304;53.104;6.022;2023-04-01T15:04:53;10.90;99.90
70726;DHT22;58304;53.104;6.022;2023-04-01T15:07:42;10.90;99.90
70726;DHT22;58304;53.104;6.022;2023-04-01T15:10:12;10.90;99.90
70726;DHT22;58304;53.104;6.022;2023-04-01T15:13:05;10.70;99.90
70726;DHT22;58304;53.104;6.022;2023-04-01T15:19:02;10.70;99.90
70726;DHT22;58304;53.104;6.022;2023-04-01T15:21:37;10.60;99.90
70726;DHT22;58304;53.104;6.022;2023-04-01T15:24:56;10.50;99.90
70726;DHT22;58304;53.104;6.022;2023-04-01T15:40:28;10.30;99.90
70726;DHT22;58304;53.104;6.022;2023-04-01T15:46:24;10.20;99.90
70726;DHT22;58304;53.104;6.022;2023-04-01T15:51:24;10.10;99.90
70726;DHT22;58304;53.104;6.022;2023-04-01T15:53:56;10.00;99.90
70726;DHT22;58304;53.104;6.022;2023-04-01T15:56:36;10.00;99.90
70726;DHT22;58304;53.104;6.022;2023-04-01T15:59:14;9.90;99.90
70726;DHT22;58304;53.104;6.022;2023-04-01T16:01:48;9.80;99.90
70726;DHT22;58304;53.104;6.022;2023-04-01T16:04:21;9.80;99.90
70726;DHT22;58304;53.104;6.022;2023-04-01T16:09:43;9.70;99.90
70726;DHT22;58304;53.104;6.022;2023-04-01T16:20:19;9.40;99.90
70726;DHT22;58304;53.104;6.022;2023-04-01T16:22:49;9.40;99.90
70726;DHT22;58304;53.104;6.022;2023-04-01T16:33:12;9.10;99.90
70726;DHT22;58304;53.104;6.022;2023-04-01T16:35:56;9.10;99.90
70726;DHT22;58304;53.104;6.022;2023-04-01T16:51:13;8.90;99.90
70726;DHT22;58304;53.104;6.022;2023-04-01T16:53:45;8.90;99.90
70726;DHT22;58304;53.104;6.022;2023-04-01T16:56:56;8.80;99.90
70726;DHT22;58304;53.104;6.022;2023-04-01T17:01:27;8.70;99.90
70726;DHT22;58304;53.104;6.022;2023-04-01T17:03:58;8.70;99.90
70726;DHT22;58304;53.104;6.022;2023-04-01T17:11:39;8.60;99.90
70726;DHT22;58304;53.104;6.022;2023-04-01T17:19:24;8.50;99.90
70726;DHT22;58304;53.104;6.022;2023-04-01T17:21:57;8.50;99.90
70726;DHT22;58304;53.104;6.022;2023-04-01T17:38:33;8.20;99.90
70726;DHT22;58304;53.104;6.022;2023-04-01T17:40:57;8.20;99.90
70726;DHT22;58304;53.104;6.022;2023-04-01T17:45:53;8.10;99.90
70726;DHT22;58304;53.104;6.022;2023-04-01T17:50:53;8.00;99.90
70726;DHT22;58304;53.104;6.022;2023-04-01T17:53:29;8.00;99.90
70726;DHT22;58304;53.104;6.022;2023-04-01T17:58:29;7.90;99.90
70726;DHT22;58304;53.104;6.022;2023-04-01T18:01:02;7.90;99.90
70726;DHT22;58304;53.104;6.022;2023-04-01T18:06:12;7.80;99.90
70726;DHT22;58304;53.104;6.022;2023-04-01T18:11:25;7.80;99.90
70726;DHT22;58304;53.104;6.022;2023-04-01T18:21:53;7.70;99.90
70726;DHT22;58304;53.104;6.022;2023-04-01T18:24:22;7.60;99.90
70726;DHT22;58304;53.104;6.022;2023-04-01T18:26:51;7.60;99.90
70726;DHT22;58304;53.104;6.022;2023-04-01T18:29:40;7.60;99.90
70726;DHT22;58304;53.104;6.022;2023-04-01T18:37:40;7.60;99.90
70726;DHT22;58304;53.104;6.022;2023-04-01T18:40:13;7.50;99.90
70726;DHT22;58304;53.104;6.022;2023-04-01T18:42:43;7.50;99.90
70726;DHT22;58304;53.104;6.022;2023-04-01T18:45:18;7.50;99.90
70726;DHT22;58304;53.104;6.022;2023-04-01T18:47:57;7.50;99.90
70726;DHT22;58304;53.104;6.022;2023-04-01T18:50:27;7.50;99.90
70726;DHT22;58304;53.104;6.022;2023-04-01T18:52:56;7.40;99.90
70726;DHT22;58304;53.104;6.022;2023-04-01T18:55:46;7.40;99.90
70726;DHT22;58304;53.104;6.022;2023-04-01T18:58:21;7.30;99.90
70726;DHT22;58304;53.104;6.022;2023-04-01T19:01:35;7.30;99.90
70726;DHT22;58304;53.104;6.022;2023-04-01T19:06:23;7.30;99.90
70726;DHT22;58304;53.104;6.022;2023-04-01T19:08:51;7.30;99.90
70726;DHT22;58304;53.104;6.022;2023-04-01T19:11:38;7.20;99.90
70726;DHT22;58304;53.104;6.022;2023-04-01T19:14:12;7.20;99.90
70726;DHT22;58304;53.104;6.022;2023-04-01T19:21:42;7.20;99.90
70726;DHT22;58304;53.104;6.022;2023-04-01T19:27:03;7.10;99.90
70726;DHT22;58304;53.104;6.022;2023-04-01T19:34:50;7.10;99.90
70726;DHT22;58304;53.104;6.022;2023-04-01T19:42:39;7.00;99.90
70726;DHT22;58304;53.104;6.022;2023-04-01T19:50:30;6.90;99.90
70726;DHT22;58304;53.104;6.022;2023-04-01T19:53:05;6.80;99.90
70726;DHT22;58304;53.104;6.022;2023-04-01T19:55:37;6.90;99.90
70726;DHT22;58304;53.104;6.022;2023-04-01T20:01:14;6.80;99.90
70726;DHT22;58304;53.104;6.022;2023-04-01T20:03:45;6.80;99.90
70726;DHT22;58304;53.104;6.022;2023-04-01T20:06:32;6.70;99.90
70726;DHT22;58304;53.104;6.022;2023-04-01T20:09:05;6.70;99.90
70726;DHT22;58304;53.104;6.022;2023-04-01T20:19:15;6.60;99.90
70726;DHT22;58304;53.104;6.022;2023-04-01T20:21:46;6.60;99.90
70726;DHT22;58304;53.104;6.022;2023-04-01T20:26:39;6.60;99.90
70726;DHT22;58304;53.104;6.022;2023-04-01T20:29:15;6.50;99.90
70726;DHT22;58304;53.104;6.022;2023-04-01T20:31:44;6.50;99.90
70726;DHT22;58304;53.104;6.022;2023-04-01T20:34:19;6.50;99.90
70726;DHT22;58304;53.104;6.022;2023-04-01T20:37:02;6.50;99.90
70726;DHT22;58304;53.104;6.022;2023-04-01T20:45:22;6.40;99.90
70726;DHT22;58304;53.104;6.022;2023-04-01T20:50:31;6.40;99.90
70726;DHT22;58304;53.104;6.022;2023-04-01T20:53:15;6.40;99.90
70726;DHT22;58304;53.104;6.022;2023-04-01T21:00:45;6.30;99.90
70726;DHT22;58304;53.104;6.022;2023-04-01T21:03:18;6.30;99.90
70726;DHT22;58304;53.104;6.022;2023-04-01T21:11:14;6.20;99.90
70726;DHT22;58304;53.104;6.022;2023-04-01T21:14:04;6.20;99.90
70726;DHT22;58304;53.104;6.022;2023-04-01T21:26:47;6.10;99.90
70726;DHT22;58304;53.104;6.022;2023-04-01T21:29:33;6.10;99.90
70726;DHT22;58304;53.104;6.022;2023-04-01T21:42:19;6.00;99.90
70726;DHT22;58304;53.104;6.022;2023-04-01T21:44:55;6.00;99.90
70726;DHT22;58304;53.104;6.022;2023-04-01T21:55:31;6.00;99.90
70726;DHT22;58304;53.104;6.022;2023-04-01T21:58:08;6.00;99.90
70726;DHT22;58304;53.104;6.022;2023-04-01T22:00:40;6.00;99.90
70726;DHT22;58304;53.104;6.022;2023-04-01T22:03:14;6.00;99.90
70726;DHT22;58304;53.104;6.022;2023-04-01T22:13:20;6.00;99.90
70726;DHT22;58304;53.104;6.022;2023-04-01T22:16:16;6.00;99.90
70726;DHT22;58304;53.104;6.022;2023-04-01T22:18:41;6.00;99.90
70726;DHT22;58304;53.104;6.022;2023-04-01T22:21:16;6.00;99.90
70726;DHT22;58304;53.104;6.022;2023-04-01T22:23:47;5.90;99.90
70726;DHT22;58304;53.104;6.022;2023-04-01T22:26:16;6.00;99.90
70726;DHT22;58304;53.104;6.022;2023-04-01T22:31:42;5.90;99.90
70726;DHT22;58304;53.104;6.022;2023-04-01T22:34:13;5.90;99.90
70726;DHT22;58304;53.104;6.022;2023-04-01T22:36:48;5.90;99.90
70726;DHT22;58304;53.104;6.022;2023-04-01T22:51:52;5.80;99.90
70726;DHT22;58304;53.104;6.022;2023-04-01T22:54:23;5.80;99.90
70726;DHT22;58304;53.104;6.022;2023-04-01T22:56:53;5.70;99.90
70726;DHT22;58304;53.104;6.022;2023-04-01T23:02:17;5.70;99.90
70726;DHT22;58304;53.104;6.022;2023-04-01T23:04:45;5.60;99.90
70726;DHT22;58304;53.104;6.022;2023-04-01T23:12:58;5.60;99.90
70726;DHT22;58304;53.104;6.022;2023-04-01T23:15:25;5.60;99.90
70726;DHT22;58304;53.104;6.022;2023-04-01T23:20:58;5.50;99.90
70726;DHT22;58304;53.104;6.022;2023-04-01T23:31:06;5.40;99.90
70726;DHT22;58304;53.104;6.022;2023-04-01T23:33:53;5.30;99.90
70726;DHT22;58304;53.104;6.022;2023-04-01T23:36:18;5.30;99.90
70726;DHT22;58304;53.104;6.022;2023-04-01T23:38:46;5.20;99.90
70726;DHT22;58304;53.104;6.022;2023-04-01T23:41:20;5.30;99.90
70726;DHT22;58304;53.104;6.022;2023-04-01T23:43:50;5.20;99.90
70726;DHT22;58304;53.104;6.022;2023-04-01T23:46:18;5.10;99.90
70726;DHT22;58304;53.104;6.022;2023-04-01T23:48:44;5.10;99.90
70726;DHT22;58304;53.104;6.022;2023-04-01T23:51:58;5.10;99.90
70726;DHT22;58304;53.104;6.022;2023-04-01T23:53:59;5.10;99.90
70726;DHT22;58304;53.104;6.022;2023-04-01T23:56:40;5.00;99.90
70726;DHT22;58304;53.104;6.022;2023-04-01T23:59:10;5.00;99.90
